Time;durP1;ratioP1;P1;durP2;ratioP2;P2;SDS_P1;SDS_P2;PMS_P1;PMS_P2;Temp;Humidity;BMP_temperature;BMP_pressure;BME280_temperature;BME280_humidity;BME280_pressure;Samples;Min_cycle;Max_cycle;Signal;HPM_P1;HPM_P2
2022/06/06 00:02:08;;;;;;;1.45;0.68;;;30.30;50.00;;;;;;5057965;28;20669;-62
2022/06/06 00:04:36;;;;;;;1.00;0.93;;;30.30;49.90;;;;;;5060362;28;20044;-62
2022/06/06 00:07:05;;;;;;;0.65;0.65;;;30.30;49.70;;;;;;5060658;28;20037;-62
2022/06/06 00:09:32;;;;;;;1.75;0.73;;;30.30;49.60;;;;;;5057348;28;20124;-61
2022/06/06 00:12:02;;;;;;;1.10;0.28;;;30.30;49.60;;;;;;5062309;28;20036;-62
2022/06/06 00:14:29;;;;;;;1.38;0.70;;;30.30;49.50;;;;;;5058191;28;20052;-61
2022/06/06 00:16:57;;;;;;;1.00;0.60;;;30.30;49.50;;;;;;5054800;28;20086;-63
2022/06/06 00:19:25;;;;;;;1.15;0.80;;;30.30;49.50;;;;;;5061275;28;20037;-62
2022/06/06 00:21:52;;;;;;;0.47;0.40;;;30.30;49.40;;;;;;5057715;28;20048;-62
2022/06/06 00:24:20;;;;;;;0.63;0.50;;;30.30;50.00;;;;;;5059703;28;20053;-63
2022/06/06 00:26:47;;;;;;;1.60;0.40;;;30.30;49.40;;;;;;5055423;28;20051;-62
2022/06/06 00:29:17;;;;;;;1.85;0.35;;;30.20;49.40;;;;;;5058176;28;20037;-63
2022/06/06 00:37:17;;;;;;;2.45;0.50;;;30.20;49.40;;;;;;5053608;28;20037;-62
2022/06/06 00:39:45;;;;;;;0.70;0.70;;;30.20;49.40;;;;;;5053977;28;20048;-62
2022/06/06 00:42:14;;;;;;;0.40;0.40;;;30.20;49.40;;;;;;5051121;28;20049;-62
2022/06/06 00:44:42;;;;;;;1.45;0.47;;;30.20;49.50;;;;;;5049525;28;20136;-61
2022/06/06 00:47:17;;;;;;;0.47;0.30;;;30.20;49.40;;;;;;5052809;28;20036;-62
2022/06/06 00:49:50;;;;;;;0.73;0.40;;;30.20;49.40;;;;;;5049348;28;20037;-62
2022/06/06 00:52:21;;;;;;;1.23;0.70;;;30.20;49.30;;;;;;5047981;28;20173;-62
2022/06/06 00:54:50;;;;;;;1.85;0.40;;;30.20;49.30;;;;;;5051210;28;20045;-63
2022/06/06 00:57:22;;;;;;;0.85;0.20;;;30.20;49.30;;;;;;5050452;28;20037;-63
2022/06/06 00:59:50;;;;;;;0.68;0.30;;;30.20;49.20;;;;;;5058702;28;20160;-63
2022/06/06 01:02:18;;;;;;;0.40;0.30;;;30.20;49.20;;;;;;5058888;28;20033;-63
2022/06/06 01:04:47;;;;;;;0.63;0.50;;;30.20;49.20;;;;;;5049088;28;20079;-62
2022/06/06 01:07:14;;;;;;;0.40;0.40;;;30.20;49.20;;;;;;5054805;28;20045;-63
2022/06/06 01:09:43;;;;;;;0.50;0.30;;;30.10;49.10;;;;;;5047965;28;20071;-62
2022/06/06 01:12:13;;;;;;;3.72;0.82;;;30.10;49.20;;;;;;5052030;28;20044;-62
2022/06/06 01:14:44;;;;;;;1.58;0.20;;;30.10;49.20;;;;;;5048428;28;20544;-62
2022/06/06 01:17:22;;;;;;;0.30;0.30;;;30.10;49.10;;;;;;5055619;28;20040;-62
2022/06/06 01:20:22;;;;;;;0.57;0.50;;;30.10;49.10;;;;;;5052928;28;20037;-61
2022/06/06 01:23:13;;;;;;;0.57;0.50;;;30.10;49.00;;;;;;5050052;28;20037;-61
2022/06/06 01:26:04;;;;;;;1.00;0.50;;;30.10;49.20;;;;;;5046338;28;20051;-61
2022/06/06 01:28:45;;;;;;;0.32;0.20;;;30.10;49.20;;;;;;5053287;28;20132;-61
2022/06/06 01:31:18;;;;;;;0.38;0.38;;;30.00;49.20;;;;;;5053526;28;20040;-63
2022/06/06 01:33:51;;;;;;;0.55;0.20;;;30.00;49.20;;;;;;5047805;28;20051;-61
2022/06/06 01:36:18;;;;;;;0.25;0.25;;;30.00;49.10;;;;;;5051918;28;20131;-62
2022/06/06 01:38:45;;;;;;;0.55;0.55;;;30.00;49.10;;;;;;5050301;28;20059;-61
2022/06/06 01:41:20;;;;;;;5.15;0.43;;;30.00;49.00;;;;;;5058481;28;20120;-62
2022/06/06 01:43:55;;;;;;;0.63;0.20;;;30.00;48.90;;;;;;5056915;28;20048;-61
2022/06/06 01:46:26;;;;;;;;;;;30.00;48.90;;;;;;5055432;28;20060;-61
2022/06/06 01:48:54;;;;;;;0.35;0.25;;;29.90;48.80;;;;;;5047640;28;20029;-61
2022/06/06 01:51:24;;;;;;;0.20;0.10;;;29.90;48.80;;;;;;5048151;28;20037;-61
2022/06/06 01:53:51;;;;;;;0.30;0.30;;;29.90;48.70;;;;;;5049652;28;20052;-62
2022/06/06 01:56:22;;;;;;;0.82;0.82;;;29.90;48.70;;;;;;5058432;28;20041;-62
2022/06/06 01:58:50;;;;;;;1.48;0.35;;;29.90;48.60;;;;;;5043538;28;20041;-63
2022/06/06 02:01:17;;;;;;;1.00;0.10;;;30.00;48.60;;;;;;5062852;28;20143;-62
2022/06/06 02:03:44;;;;;;;0.90;0.15;;;29.90;48.40;;;;;;5053108;28;20060;-62
2022/06/06 02:06:11;;;;;;;0.30;0.20;;;29.90;48.30;;;;;;5047569;28;20378;-62
2022/06/06 02:08:39;;;;;;;0.38;0.30;;;30.00;48.30;;;;;;5047801;28;20084;-62
2022/06/06 02:11:06;;;;;;;0.20;0.20;;;30.00;48.20;;;;;;5045609;28;20052;-61
2022/06/06 02:13:33;;;;;;;0.85;0.20;;;30.00;48.10;;;;;;5061052;28;20048;-61
2022/06/06 02:16:02;;;;;;;0.82;0.20;;;30.00;48.10;;;;;;5048823;28;20067;-61
2022/06/06 02:18:29;;;;;;;0.52;0.20;;;30.00;48.10;;;;;;5050119;28;20049;-62
2022/06/06 02:20:56;;;;;;;0.25;0.25;;;30.00;48.10;;;;;;5056021;28;20041;-61
2022/06/06 02:23:23;;;;;;;0.38;0.10;;;30.00;48.00;;;;;;5047226;28;20783;-61
2022/06/06 02:25:50;;;;;;;0.10;0.10;;;30.00;48.00;;;;;;5043693;28;20858;-61
2022/06/06 02:28:18;;;;;;;0.20;0.20;;;30.00;48.60;;;;;;5049230;28;20041;-62
2022/06/06 02:30:45;;;;;;;0.10;0.10;;;29.90;47.90;;;;;;5053353;28;20126;-61
2022/06/06 02:33:14;;;;;;;0.38;0.20;;;30.00;47.90;;;;;;5050676;28;20037;-61
2022/06/06 02:35:42;;;;;;;0.80;0.25;;;29.90;47.80;;;;;;5052298;28;20428;-61
2022/06/06 02:38:11;;;;;;;0.75;0.20;;;29.90;48.50;;;;;;5050814;28;20037;-61
2022/06/06 02:40:38;;;;;;;0.93;0.10;;;29.90;47.90;;;;;;5055495;28;20114;-61
2022/06/06 02:43:05;;;;;;;1.55;0.28;;;29.90;47.90;;;;;;5052209;28;20123;-61
2022/06/06 02:45:32;;;;;;;0.38;0.10;;;29.90;47.80;;;;;;5054489;28;20060;-61
2022/06/06 02:48:00;;;;;;;0.17;0.10;;;29.90;47.80;;;;;;5053314;28;20041;-62
2022/06/06 02:50:30;;;;;;;0.10;0.10;;;29.90;47.70;;;;;;5050188;28;20064;-61
2022/06/06 02:52:58;;;;;;;0.20;0.20;;;29.90;47.80;;;;;;5046175;28;20053;-62
2022/06/06 02:55:25;;;;;;;0.20;0.20;;;29.90;47.80;;;;;;5053116;28;20123;-61
2022/06/06 02:57:54;;;;;;;0.20;0.20;;;29.90;47.80;;;;;;5051320;28;20044;-61
2022/06/06 03:00:26;;;;;;;0.20;0.20;;;29.90;47.70;;;;;;5053360;28;20048;-61
2022/06/06 03:02:54;;;;;;;0.20;0.20;;;29.90;47.70;;;;;;5053674;28;20633;-61
2022/06/06 03:05:22;;;;;;;0.20;0.20;;;29.90;47.60;;;;;;5051388;28;20417;-61
2022/06/06 03:08:13;;;;;;;0.55;0.10;;;29.90;47.50;;;;;;5049082;28;20062;-62
2022/06/06 03:10:54;;;;;;;0.20;0.10;;;29.90;47.40;;;;;;5049201;28;20421;-61
2022/06/06 03:13:54;;;;;;;1.38;0.10;;;29.90;47.30;;;;;;5065188;28;20138;-61
2022/06/06 03:22:29;;;;;;;0.10;0.10;;;29.80;47.10;;;;;;5053531;28;20079;-63
2022/06/06 03:25:06;;;;;;;0.17;0.10;;;29.80;47.10;;;;;;5052615;28;20047;-62
2022/06/06 03:27:44;;;;;;;1.77;0.30;;;29.80;47.10;;;;;;5054227;28;20118;-63
2022/06/06 03:30:21;;;;;;;0.38;0.10;;;29.80;47.00;;;;;;5054369;28;20467;-62
2022/06/06 03:33:10;;;;;;;0.63;0.20;;;29.80;47.00;;;;;;5050339;28;20420;-63
2022/06/06 03:35:42;;;;;;;0.10;0.10;;;29.80;46.90;;;;;;5050945;28;20055;-62
2022/06/06 03:38:20;;;;;;;0.22;0.22;;;29.80;46.90;;;;;;5049265;28;20069;-62
2022/06/06 03:40:56;;;;;;;0.40;0.10;;;29.80;46.80;;;;;;5053285;28;20132;-62
2022/06/06 03:43:32;;;;;;;0.32;0.10;;;29.80;46.80;;;;;;5051090;28;20142;-61
2022/06/06 03:46:14;;;;;;;0.32;0.10;;;29.80;46.80;;;;;;5056651;28;20601;-62
2022/06/06 03:48:51;;;;;;;0.28;0.10;;;29.80;46.80;;;;;;5051389;28;20106;-62
2022/06/06 03:51:28;;;;;;;0.15;0.15;;;29.80;46.70;;;;;;5047689;28;20037;-62
2022/06/06 03:54:01;;;;;;;1.25;0.20;;;29.80;46.70;;;;;;5051017;28;20608;-61
2022/06/06 03:56:42;;;;;;;0.10;0.10;;;29.70;46.50;;;;;;5049464;28;20033;-61
2022/06/06 03:59:10;;;;;;;0.45;0.10;;;29.80;46.50;;;;;;5045804;28;20658;-61
2022/06/06 04:01:40;;;;;;;0.10;0.10;;;29.70;46.40;;;;;;5051593;28;20074;-61
2022/06/06 04:04:08;;;;;;;0.10;0.10;;;29.70;46.40;;;;;;5053625;28;20091;-61
2022/06/06 04:06:36;;;;;;;0.52;0.10;;;29.70;46.30;;;;;;5049745;28;20045;-61
2022/06/06 04:09:03;;;;;;;1.00;0.10;;;29.70;46.30;;;;;;5049326;28;20068;-61
2022/06/06 04:11:42;;;;;;;1.30;0.10;;;29.70;46.30;;;;;;5048034;28;20723;-61
2022/06/06 04:14:21;;;;;;;0.15;0.10;;;29.70;46.30;;;;;;5059793;28;20677;-61
2022/06/06 04:16:55;;;;;;;0.40;0.10;;;29.70;46.30;;;;;;5046381;28;20033;-61
2022/06/06 04:19:33;;;;;;;0.25;0.10;;;29.70;46.40;;;;;;5058338;28;20036;-61
2022/06/06 04:22:11;;;;;;;0.75;0.15;;;29.70;46.30;;;;;;5056348;28;20041;-62
2022/06/06 04:24:58;;;;;;;0.10;0.10;;;29.70;46.30;;;;;;5049118;28;20051;-62
2022/06/06 04:27:36;;;;;;;0.20;0.20;;;29.70;46.30;;;;;;5053211;28;20116;-61
2022/06/06 04:30:06;;;;;;;0.00;0.00;;;29.70;46.30;;;;;;5052563;28;20094;-61
2022/06/06 04:32:44;;;;;;;0.57;0.10;;;29.70;46.30;;;;;;5048968;28;20045;-61
2022/06/06 04:35:20;;;;;;;0.20;0.10;;;29.70;46.20;;;;;;5047067;28;20048;-61
2022/06/06 04:37:53;;;;;;;0.10;0.03;;;29.70;46.20;;;;;;5050272;28;20045;-61
2022/06/06 04:40:35;;;;;;;0.10;0.10;;;29.60;46.10;;;;;;5056443;28;20077;-61
2022/06/06 04:43:11;;;;;;;0.10;0.10;;;29.60;46.10;;;;;;5062231;28;20124;-63
2022/06/06 04:45:47;;;;;;;0.10;0.10;;;29.60;46.10;;;;;;5055262;28;20076;-61
2022/06/06 04:48:15;;;;;;;0.10;0.10;;;29.70;46.10;;;;;;5050241;28;20040;-61
2022/06/06 04:50:44;;;;;;;0.10;0.10;;;29.60;46.10;;;;;;5058907;28;20044;-60
2022/06/06 04:53:15;;;;;;;0.40;0.10;;;29.70;46.10;;;;;;5051888;28;20076;-61
2022/06/06 04:55:43;;;;;;;3.92;0.10;;;29.70;46.20;;;;;;5056516;28;20123;-61
2022/06/06 04:58:13;;;;;;;0.10;0.05;;;29.70;46.20;;;;;;5060816;28;20919;-61
2022/06/06 05:00:42;;;;;;;0.20;0.10;;;29.60;46.10;;;;;;5057603;28;20064;-61
2022/06/06 05:03:09;;;;;;;1.88;0.00;;;29.60;46.10;;;;;;5058062;28;20101;-62
2022/06/06 05:05:42;;;;;;;0.30;0.20;;;29.70;46.10;;;;;;5061206;28;20052;-62
2022/06/06 05:08:21;;;;;;;1.45;0.10;;;29.70;46.00;;;;;;5055553;28;20059;-61
2022/06/06 05:11:08;;;;;;;0.10;0.10;;;29.60;46.50;;;;;;5058907;28;20059;-61
2022/06/06 05:14:05;;;;;;;0.10;0.10;;;29.60;45.80;;;;;;5058074;28;20129;-60
2022/06/06 05:16:48;;;;;;;0.63;0.10;;;29.70;45.90;;;;;;4996462;28;20058;-61
2022/06/06 05:19:30;;;;;;;0.20;0.10;;;29.60;45.80;;;;;;4997788;28;20156;-61
2022/06/06 05:22:17;;;;;;;0.22;0.10;;;29.60;45.80;;;;;;4995376;28;20052;-62
2022/06/06 05:25:00;;;;;;;2.13;0.10;;;29.60;45.70;;;;;;4987248;28;20050;-62
2022/06/06 05:27:49;;;;;;;1.48;0.10;;;29.60;46.00;;;;;;4993165;28;20090;-63
2022/06/06 05:30:21;;;;;;;0.90;0.10;;;29.60;46.10;;;;;;4999679;28;20069;-64
2022/06/06 05:33:11;;;;;;;0.38;0.10;;;29.60;46.10;;;;;;4998412;28;20088;-65
2022/06/06 05:36:03;;;;;;;0.10;0.10;;;29.70;46.10;;;;;;4994697;28;20050;-58
2022/06/06 05:39:08;;;;;;;0.52;0.20;;;29.80;46.20;;;;;;4991672;28;20077;-56
2022/06/06 05:41:55;;;;;;;0.10;0.10;;;29.80;45.90;;;;;;4989737;28;20042;-60
2022/06/06 05:44:33;;;;;;;3.10;0.13;;;29.80;45.80;;;;;;4990149;28;20077;-67
2022/06/06 05:47:11;;;;;;;0.82;0.00;;;29.90;44.20;;;;;;4996163;28;20405;-67
2022/06/06 05:49:51;;;;;;;2.08;0.20;;;29.90;42.40;;;;;;4994339;28;20056;-63
2022/06/06 05:52:45;;;;;;;1.17;0.10;;;29.90;41.90;;;;;;4995079;28;20133;-63
2022/06/06 05:55:26;;;;;;;2.72;0.20;;;29.90;41.50;;;;;;5059413;28;20143;-64
2022/06/06 05:58:16;;;;;;;0.77;0.00;;;29.80;41.40;;;;;;5048049;28;20083;-62
2022/06/06 06:00:57;;;;;;;1.13;0.00;;;29.80;41.20;;;;;;5049348;28;20044;-63
2022/06/06 06:03:50;;;;;;;0.17;0.00;;;29.80;41.00;;;;;;5050767;28;20041;-61
2022/06/06 06:06:26;;;;;;;0.15;0.03;;;29.70;40.80;;;;;;5053541;28;20084;-61
2022/06/06 06:09:17;;;;;;;1.60;0.10;;;29.70;40.80;;;;;;5053749;28;20491;-59
2022/06/06 06:12:07;;;;;;;1.35;0.00;;;29.60;40.60;;;;;;5048238;28;20128;-61
2022/06/06 06:14:47;;;;;;;0.28;0.28;;;29.60;40.70;;;;;;5052918;28;20569;-72
2022/06/06 06:17:18;;;;;;;0.00;0.00;;;29.50;40.60;;;;;;5054122;28;20033;-73
2022/06/06 06:19:54;;;;;;;2.38;0.00;;;29.50;40.70;;;;;;5058007;28;20041;-75
2022/06/06 06:22:24;;;;;;;4.47;0.10;;;29.40;40.50;;;;;;5054764;28;20132;-69
2022/06/06 06:24:56;;;;;;;0.60;0.00;;;29.40;40.50;;;;;;5048233;28;20132;-72
2022/06/06 06:27:26;;;;;;;0.10;0.00;;;29.30;40.70;;;;;;5058045;28;20412;-71
2022/06/06 06:29:53;;;;;;;6.22;0.32;;;29.30;40.40;;;;;;5057586;28;20041;-64
2022/06/06 06:32:35;;;;;;;1.35;0.00;;;29.30;40.40;;;;;;5061284;28;20521;-63
2022/06/06 06:35:13;;;;;;;0.85;0.00;;;29.30;40.60;;;;;;5046490;28;20721;-68
2022/06/06 06:38:11;;;;;;;1.58;0.10;;;29.20;40.60;;;;;;5047837;28;20510;-64
2022/06/06 06:40:49;;;;;;;0.03;0.00;;;29.20;40.50;;;;;;5048192;28;20596;-74
2022/06/06 06:43:28;;;;;;;0.22;0.00;;;29.20;40.40;;;;;;5051615;28;20548;-69
2022/06/06 06:46:00;;;;;;;0.00;0.00;;;29.20;40.30;;;;;;5047125;28;20045;-67
2022/06/06 06:48:33;;;;;;;0.00;0.00;;;29.20;40.30;;;;;;5051719;28;20041;-64
2022/06/06 06:51:07;;;;;;;0.73;0.10;;;29.30;40.10;;;;;;5054284;28;20123;-65
2022/06/06 06:53:52;;;;;;;0.65;0.00;;;29.40;39.60;;;;;;5052504;28;20133;-63
2022/06/06 06:56:36;;;;;;;0.00;0.00;;;29.50;39.50;;;;;;5045347;28;20045;-65
2022/06/06 06:59:10;;;;;;;2.10;0.35;;;29.60;39.40;;;;;;5052765;28;20384;-65
2022/06/06 07:08:32;;;;;;;2.10;0.25;;;29.80;39.10;;;;;;5052622;28;20461;-64
2022/06/06 07:10:30;;;;;;;2.95;0.10;;;30.10;38.10;;;;;;5058820;28;20049;-63
2022/06/06 07:13:14;;;;;;;0.30;0.10;;;30.20;37.80;;;;;;5059471;28;20041;-64
2022/06/06 07:15:46;;;;;;;1.48;0.10;;;30.40;37.70;;;;;;5055209;28;20504;-72
2022/06/06 07:18:17;;;;;;;1.65;0.10;;;30.40;37.50;;;;;;5057947;28;20083;-62
2022/06/06 07:20:47;;;;;;;0.77;0.30;;;30.50;37.30;;;;;;5060771;28;20108;-61
2022/06/06 07:23:17;;;;;;;2.85;0.00;;;30.50;37.10;;;;;;5065721;28;20731;-63
2022/06/06 07:25:46;;;;;;;0.43;0.00;;;30.50;37.00;;;;;;5063944;28;20044;-56
2022/06/06 07:28:15;;;;;;;2.28;0.10;;;30.50;36.90;;;;;;5066557;28;20330;-61
2022/06/06 07:30:49;;;;;;;0.57;0.00;;;30.50;36.90;;;;;;5059858;28;20044;-65
2022/06/06 07:33:36;;;;;;;0.10;0.00;;;30.50;37.00;;;;;;5063825;28;20560;-64
2022/06/06 07:36:15;;;;;;;2.20;0.10;;;30.40;36.90;;;;;;5063216;28;20052;-63
2022/06/06 07:38:59;;;;;;;1.08;0.20;;;30.40;36.90;;;;;;5063916;28;20090;-60
2022/06/06 07:41:35;;;;;;;0.75;0.35;;;30.40;37.00;;;;;;5060975;28;20052;-62
2022/06/06 07:44:21;;;;;;;2.83;0.13;;;30.40;37.10;;;;;;5056485;28;20044;-60
2022/06/06 07:47:01;;;;;;;0.28;0.10;;;30.40;37.00;;;;;;5050352;28;20586;-69
2022/06/06 07:49:37;;;;;;;2.92;0.30;;;30.40;37.00;;;;;;5058210;28;20056;-66
2022/06/06 07:52:14;;;;;;;1.25;0.22;;;30.50;36.50;;;;;;5067416;28;20068;-65
2022/06/06 07:54:50;;;;;;;6.85;0.10;;;30.50;36.30;;;;;;5066694;28;20481;-70
2022/06/06 07:57:24;;;;;;;;;;;30.50;36.30;;;;;;5067849;28;20051;-59
2022/06/06 08:00:02;;;;;;;1.10;0.00;;;30.40;36.40;;;;;;5063637;28;19924;-59
2022/06/06 08:02:59;;;;;;;0.95;0.00;;;30.40;36.50;;;;;;5060400;28;20476;-60
2022/06/06 08:06:03;;;;;;;1.40;0.00;;;30.20;36.20;;;;;;5055142;28;20863;-65
2022/06/06 08:08:48;;;;;;;0.88;0.00;;;30.20;36.00;;;;;;5043810;28;20143;-55
2022/06/06 08:11:21;;;;;;;5.32;0.43;;;30.20;36.20;;;;;;5060641;28;20059;-58
2022/06/06 08:13:58;;;;;;;2.20;0.30;;;30.10;36.10;;;;;;5079497;28;20436;-63
2022/06/06 08:16:32;;;;;;;1.35;0.10;;;30.10;36.10;;;;;;5055779;28;20084;-60
2022/06/06 08:19:23;;;;;;;2.45;0.05;;;30.00;36.10;;;;;;5062977;28;20094;-58
2022/06/06 08:21:50;;;;;;;1.55;0.22;;;30.00;35.80;;;;;;5061157;28;20096;-57
2022/06/06 08:24:22;;;;;;;0.17;0.00;;;30.00;35.70;;;;;;5063912;28;20149;-58
2022/06/06 08:26:52;;;;;;;0.52;0.00;;;29.90;35.60;;;;;;5057718;28;20055;-56
2022/06/06 08:29:20;;;;;;;7.03;0.00;;;29.90;35.60;;;;;;5063759;28;20045;-55
2022/06/06 08:31:47;;;;;;;0.08;0.00;;;29.90;35.40;;;;;;5059346;28;20572;-58
2022/06/06 08:34:14;;;;;;;5.05;0.55;;;29.80;35.10;;;;;;5062893;28;20047;-57
2022/06/06 08:37:05;;;;;;;0.95;0.00;;;29.80;35.60;;;;;;5059776;28;20124;-55
2022/06/06 08:39:43;;;;;;;0.38;0.00;;;29.90;35.10;;;;;;5059790;28;20131;-69
2022/06/06 08:42:25;;;;;;;0.32;0.00;;;29.80;35.20;;;;;;5057147;28;20075;-58
2022/06/06 08:45:06;;;;;;;0.65;0.00;;;29.70;35.20;;;;;;5053410;28;20040;-63
2022/06/06 08:47:40;;;;;;;0.85;0.20;;;29.70;35.10;;;;;;5057621;28;20037;-72
2022/06/06 08:50:46;;;;;;;0.00;0.00;;;29.70;35.10;;;;;;5069648;28;20405;-63
2022/06/06 08:53:50;;;;;;;0.00;0.00;;;29.70;35.10;;;;;;5065599;28;20393;-61
2022/06/06 08:56:40;;;;;;;1.45;0.10;;;29.60;35.00;;;;;;5057780;28;20106;-64
2022/06/06 08:59:35;;;;;;;1.48;0.00;;;29.60;34.80;;;;;;5054299;28;20043;-65
2022/06/06 09:02:25;;;;;;;0.47;0.00;;;29.60;35.00;;;;;;5053146;28;20457;-63
2022/06/06 09:05:18;;;;;;;0.55;0.00;;;29.60;34.40;;;;;;5068163;28;20296;-66
2022/06/06 09:08:21;;;;;;;0.20;0.08;;;29.50;33.90;;;;;;5067466;28;20447;-68
2022/06/06 09:11:20;;;;;;;1.23;0.10;;;29.50;34.00;;;;;;5069694;28;20055;-63
2022/06/06 09:14:20;;;;;;;0.20;0.00;;;29.50;34.00;;;;;;5051894;28;20036;-58
2022/06/06 09:17:29;;;;;;;8.30;0.00;;;29.50;34.30;;;;;;5057306;28;20052;-60
2022/06/06 09:20:24;;;;;;;0.20;0.00;;;29.40;34.40;;;;;;5036990;28;20059;-61
2022/06/06 09:23:12;;;;;;;1.90;0.00;;;29.40;34.30;;;;;;5059784;28;20072;-60
2022/06/06 09:25:58;;;;;;;1.17;0.00;;;29.40;34.10;;;;;;5056938;28;20055;-61
2022/06/06 09:29:07;;;;;;;2.17;0.20;;;29.30;34.10;;;;;;5058674;28;20064;-59
2022/06/06 09:32:14;;;;;;;0.10;0.00;;;29.30;34.30;;;;;;5060562;28;20044;-66
2022/06/06 09:35:16;;;;;;;0.75;0.00;;;29.30;34.40;;;;;;5055393;28;20474;-60
2022/06/06 09:38:04;;;;;;;0.20;0.00;;;29.30;34.30;;;;;;5057003;28;20046;-63
2022/06/06 09:40:36;;;;;;;0.15;0.00;;;29.30;34.40;;;;;;5065425;28;20050;-61
2022/06/06 09:43:09;;;;;;;0.28;0.10;;;29.30;34.50;;;;;;5045778;28;20044;-61
2022/06/06 09:46:16;;;;;;;0.03;0.00;;;29.30;34.30;;;;;;5063371;28;20047;-62
2022/06/06 09:49:28;;;;;;;2.03;0.00;;;29.30;34.30;;;;;;5052000;28;20045;-61
2022/06/06 09:52:28;;;;;;;0.88;0.10;;;29.30;34.30;;;;;;5030621;28;20042;-68
2022/06/06 10:02:01;;;;;;;0.17;0.10;;;29.20;34.30;;;;;;5009202;28;20041;-66
2022/06/06 10:05:10;;;;;;;0.63;0.00;;;29.20;34.00;;;;;;5029016;28;20077;-67
2022/06/06 10:08:26;;;;;;;1.48;0.38;;;29.20;33.80;;;;;;4972318;28;20043;-70
2022/06/06 10:11:20;;;;;;;0.28;0.00;;;29.20;34.00;;;;;;4934078;29;20059;-67
2022/06/06 10:14:01;;;;;;;0.35;0.10;;;29.20;33.80;;;;;;4932810;29;20052;-62
2022/06/06 10:16:42;;;;;;;0.32;0.00;;;29.20;33.70;;;;;;4913666;29;20112;-62
2022/06/06 10:19:32;;;;;;;0.45;0.10;;;29.20;33.60;;;;;;4918818;29;20062;-62
2022/06/06 10:22:17;;;;;;;0.17;0.00;;;29.20;33.30;;;;;;4919084;29;20048;-61
2022/06/06 10:25:05;;;;;;;0.13;0.10;;;29.20;33.20;;;;;;4911589;29;20545;-57
2022/06/06 10:27:46;;;;;;;1.27;0.10;;;29.20;34.00;;;;;;4914959;29;20087;-62
2022/06/06 10:30:19;;;;;;;1.08;0.10;;;29.20;35.00;;;;;;4957257;28;20053;-58
2022/06/06 10:33:06;;;;;;;0.35;0.20;;;29.20;35.50;;;;;;4959225;28;20067;-58
2022/06/06 10:35:58;;;;;;;0.20;0.20;;;29.30;35.70;;;;;;4955301;28;20058;-56
2022/06/06 10:39:00;;;;;;;0.52;0.30;;;29.30;35.80;;;;;;4920222;29;20115;-57
2022/06/06 10:41:57;;;;;;;1.55;0.00;;;29.40;36.00;;;;;;4918680;29;20043;-56
2022/06/06 10:44:42;;;;;;;0.10;0.00;;;29.40;36.00;;;;;;4971216;28;20045;-56
2022/06/06 10:47:26;;;;;;;0.47;0.10;;;29.40;36.00;;;;;;4993208;28;20097;-57
2022/06/06 10:50:02;;;;;;;0.40;0.00;;;29.50;36.20;;;;;;5012549;28;20057;-62
2022/06/06 10:53:04;;;;;;;0.10;0.10;;;29.50;35.70;;;;;;5021136;28;20109;-73
2022/06/06 10:55:57;;;;;;;0.20;0.00;;;29.60;34.80;;;;;;4987182;28;20439;-69
2022/06/06 10:58:58;;;;;;;1.17;0.00;;;29.70;34.50;;;;;;5021072;28;20747;-73
2022/06/06 11:02:04;;;;;;;1.83;0.00;;;29.70;34.10;;;;;;5021855;28;20054;-70
2022/06/06 11:05:07;;;;;;;1.33;0.15;;;29.90;33.80;;;;;;5019095;28;20045;-60
2022/06/06 11:08:17;;;;;;;1.75;0.00;;;29.90;33.60;;;;;;5019278;28;20069;-64
2022/06/06 11:11:19;;;;;;;0.45;0.00;;;30.00;33.30;;;;;;5018278;28;20485;-60
2022/06/06 11:14:00;;;;;;;0.00;0.00;;;30.00;32.90;;;;;;5019815;28;20250;-58
2022/06/06 11:17:00;;;;;;;1.48;0.00;;;30.10;33.20;;;;;;5056063;28;20125;-58
2022/06/06 11:20:13;;;;;;;0.57;0.00;;;30.10;32.90;;;;;;5059847;28;20044;-59
2022/06/06 11:22:42;;;;;;;0.85;0.00;;;30.20;33.20;;;;;;5004347;28;20602;-63
2022/06/06 11:25:13;;;;;;;5.10;0.15;;;30.20;32.20;;;;;;5020397;28;20076;-66
2022/06/06 11:28:23;;;;;;;1.17;0.00;;;30.20;32.20;;;;;;5002870;28;20060;-57
2022/06/06 11:31:20;;;;;;;0.35;0.00;;;30.40;32.20;;;;;;5011839;28;20052;-65
2022/06/06 11:34:17;;;;;;;6.72;0.20;;;30.40;31.40;;;;;;5007356;28;20053;-69
2022/06/06 11:37:37;;;;;;;0.68;0.10;;;30.40;31.10;;;;;;5016825;28;20136;-62
2022/06/06 11:40:46;;;;;;;0.10;0.10;;;30.50;30.70;;;;;;5011845;28;20073;-58
2022/06/06 11:43:32;;;;;;;0.13;0.03;;;30.60;31.20;;;;;;5008872;28;20053;-60
2022/06/06 11:46:25;;;;;;;0.35;0.20;;;30.60;31.40;;;;;;5016704;28;20074;-62
2022/06/06 11:49:27;;;;;;;0.00;0.00;;;30.60;31.60;;;;;;5015257;28;20521;-65
2022/06/06 11:52:32;;;;;;;0.52;0.00;;;30.60;31.70;;;;;;4972442;28;20054;-58
2022/06/06 11:55:25;;;;;;;0.10;0.00;;;30.60;31.40;;;;;;4969034;28;20095;-63
2022/06/06 11:58:20;;;;;;;0.00;0.00;;;30.70;31.50;;;;;;4979063;28;20097;-64
2022/06/06 12:01:05;;;;;;;2.22;0.00;;;30.70;31.60;;;;;;4944309;28;20519;-63
2022/06/06 12:04:02;;;;;;;1.98;0.05;;;30.70;31.30;;;;;;4941453;28;20785;-65
2022/06/06 12:07:07;;;;;;;0.10;0.10;;;30.80;31.20;;;;;;4944649;29;20054;-64
2022/06/06 12:09:46;;;;;;;0.45;0.00;;;30.80;31.10;;;;;;4901350;29;20100;-66
2022/06/06 12:12:51;;;;;;;7.55;0.10;;;30.80;31.30;;;;;;4904035;29;20052;-62
2022/06/06 12:15:45;;;;;;;0.10;0.00;;;30.90;31.50;;;;;;4900516;29;20060;-62
2022/06/06 12:18:26;;;;;;;0.10;0.10;;;31.00;31.30;;;;;;4901120;29;20119;-64
2022/06/06 12:21:22;;;;;;;0.68;0.00;;;31.00;31.00;;;;;;4903608;29;20052;-63
2022/06/06 12:24:00;;;;;;;;;;;31.00;30.80;;;;;;4902558;29;20123;-63
2022/06/06 12:26:42;;;;;;;1.27;0.00;;;30.90;30.80;;;;;;4904749;29;19949;-64
2022/06/06 12:29:45;;;;;;;8.30;0.10;;;30.90;30.70;;;;;;4923644;29;20476;-63
2022/06/06 12:32:33;;;;;;;0.57;0.00;;;30.90;30.90;;;;;;4941677;28;20425;-62
2022/06/06 12:35:06;;;;;;;1.65;0.00;;;30.90;31.00;;;;;;4937662;29;20043;-63
2022/06/06 12:37:41;;;;;;;0.82;0.00;;;30.90;30.70;;;;;;4957981;28;20142;-62
2022/06/06 12:40:15;;;;;;;0.00;0.00;;;30.90;30.60;;;;;;5010816;28;20041;-62
2022/06/06 12:42:52;;;;;;;0.57;0.00;;;30.90;30.70;;;;;;5015388;28;20049;-63
2022/06/06 12:45:44;;;;;;;0.25;0.10;;;30.90;30.70;;;;;;5033769;28;20049;-63
2022/06/06 12:48:53;;;;;;;0.10;0.00;;;30.90;30.90;;;;;;5051325;28;20047;-63
2022/06/06 12:51:28;;;;;;;0.10;0.00;;;30.90;30.80;;;;;;5048263;28;20037;-63
2022/06/06 12:55:16;;;;;;;1.00;0.52;;;30.90;31.30;;;;;;5053139;28;20068;-63
2022/06/06 12:57:26;;;;;;;0.00;0.00;;;30.90;31.60;;;;;;5007577;28;20049;-65
2022/06/06 13:00:03;;;;;;;0.75;0.00;;;30.90;31.40;;;;;;5004053;28;20047;-64
2022/06/06 13:02:49;;;;;;;0.43;0.25;;;30.90;31.80;;;;;;5012483;28;20068;-63
2022/06/06 13:05:26;;;;;;;0.10;0.10;;;31.00;31.30;;;;;;5011943;28;20049;-63
2022/06/06 13:08:20;;;;;;;0.20;0.00;;;30.90;30.70;;;;;;5011301;28;20038;-63
2022/06/06 13:10:59;;;;;;;0.00;0.00;;;31.00;30.70;;;;;;5007405;28;20053;-63
2022/06/06 13:13:44;;;;;;;0.35;0.00;;;30.90;30.40;;;;;;5012072;28;20049;-62
2022/06/06 13:16:25;;;;;;;0.10;0.00;;;30.90;30.10;;;;;;5010038;28;20049;-65
2022/06/06 13:19:23;;;;;;;0.17;0.17;;;31.00;30.00;;;;;;5010929;28;20060;-62
2022/06/06 13:22:02;;;;;;;0.55;0.00;;;30.90;29.90;;;;;;5009957;28;20136;-64
2022/06/06 13:25:14;;;;;;;0.25;0.00;;;30.90;29.90;;;;;;5009931;28;20069;-63
2022/06/06 13:28:00;;;;;;;0.63;0.00;;;30.90;30.00;;;;;;5009726;28;20057;-64
2022/06/06 13:30:33;;;;;;;1.63;0.30;;;30.90;30.20;;;;;;5012244;28;21499;-62
2022/06/06 13:33:15;;;;;;;0.10;0.00;;;30.90;30.60;;;;;;5015788;28;20041;-63
2022/06/06 13:35:53;;;;;;;0.65;0.10;;;30.90;30.60;;;;;;5075635;28;20043;-67
2022/06/06 13:38:36;;;;;;;1.58;0.00;;;31.00;30.70;;;;;;5073419;28;20087;-72
2022/06/06 13:41:14;;;;;;;0.00;0.00;;;30.90;30.10;;;;;;5063530;28;20052;-66
2022/06/06 13:43:57;;;;;;;0.85;0.00;;;31.00;30.30;;;;;;5058338;28;20115;-64
2022/06/06 13:46:39;;;;;;;0.10;0.00;;;31.00;30.30;;;;;;5058938;28;20049;-63
2022/06/06 13:49:29;;;;;;;0.00;0.00;;;31.00;30.00;;;;;;5064429;28;20219;-63
2022/06/06 13:52:11;;;;;;;0.00;0.00;;;31.00;29.90;;;;;;5064324;28;20075;-63
2022/06/06 13:54:40;;;;;;;3.35;0.00;;;31.10;29.90;;;;;;5059917;28;20068;-57
2022/06/06 13:57:24;;;;;;;0.20;0.20;;;31.10;30.60;;;;;;5053039;28;20512;-54
2022/06/06 14:00:15;;;;;;;0.75;0.00;;;31.10;30.00;;;;;;5047406;28;20119;-60
2022/06/06 14:02:58;;;;;;;5.25;0.00;;;31.10;29.90;;;;;;5051120;28;20047;-61
2022/06/06 14:05:48;;;;;;;0.00;0.00;;;31.10;29.30;;;;;;5062419;28;20045;-64
2022/06/06 14:08:20;;;;;;;11.05;0.65;;;31.10;29.40;;;;;;5065999;28;20134;-57
2022/06/06 14:11:05;;;;;;;2.20;0.10;;;31.10;29.60;;;;;;5044964;28;20075;-59
2022/06/06 14:13:46;;;;;;;0.93;0.00;;;31.10;29.60;;;;;;5067756;28;20052;-57
2022/06/06 14:16:24;;;;;;;0.75;0.00;;;31.10;29.50;;;;;;5050549;28;20068;-57
2022/06/06 14:18:55;;;;;;;1.10;0.13;;;31.10;29.90;;;;;;5047796;28;20041;-54
2022/06/06 14:21:28;;;;;;;0.00;0.00;;;31.10;29.80;;;;;;5060050;28;20052;-61
2022/06/06 14:24:14;;;;;;;0.43;0.00;;;31.20;30.00;;;;;;5053913;28;20044;-61